シカゴ/オヘア の空港の天気 - METARとTAF

シカゴ・オヘア国際空港 ( KORD / ORD ) - アメリカ イリノイ州シカゴ
飛行場実況気象(Metar)
観測時間10/28 11:51 CDT (10/28 16:51 UTC)
風向・風速南西 6m/s 瞬間風速8m/s
視程10km以上
天気現象
全天の8割程度の雲 雲底高度 7620m
気温8.3℃
湿度40%
気圧1016.8hPa
METARKORD 281651Z 22011G15KT 10SM BKN250 08/M04 A3001 RMK AO2 SLP168 T00831044 $
過去の天気等 Google飛行場航空写真 Wunderground天気予報

過去48時間のMETAR

飛行場予報(TAF)
発表時間: 10/28 12:31 CDT (10/28 17:31 UTC)
予報対象時間: 28日13時 CDT ~ 29日19時 CDT
風向・風速南西 6m/s 瞬間風速 9m/s
視程10km以上
全天の4割程度の雲 雲底高度 7620m
28日18時 CDT から
風向・風速南西 3m/s
視程10km以上
全天の8割程度の雲 雲底高度 9140m
29日0時 CDT から
風向・風速北北西 4m/s
視程10km以上
全天を覆う雲 雲底高度 7620m
29日5時 CDT から
風向・風速北 6m/s
視程10km以上
全天を覆う雲 雲底高度 520m
29日10時 CDT から
風向・風速北北東 8m/s 瞬間風速 12m/s
視程10km以上
全天を覆う雲 雲底高度 610m
KORD 281731Z 2818/2924 23011G17KT P6SM SCT250
FM282300 23006KT P6SM BKN300
FM290500 33007KT P6SM OVC250
FM291000 01011KT P6SM OVC017
FM291500 02015G23KT P6SM OVC020